Terminal Aerodrome Forecast
Issued by NWS

Home | Current Version | Previous Version | Text Only | Print | Product List | Glossary Off
Versions: 1 2 3 4 5 6 7 8 9 10 11 12 13 14 15 16

000
FTUS43 KMPX 232321
TAFAXN
TAF
KAXN 232321Z 2400/2424 VRB05KT P6SM FEW250
     FM240400 11007KT P6SM BKN100
     FM241000 13011KT P6SM VCSH OVC050
     FM241300 13014G19KT 6SM -SHRA OVC040
     FM241800 13016G22KT 6SM -SHRA OVC020=

USA.gov is the U.S. government's official web portal to all federal, state and local government web resources and services.